Portada
METAR-TAF:

METAR-TAF

Aeroports :

Aeroport Andorra - la Seu d'Urgell

La Seu d'Urgell, Espanya

latitud: 42-20-29N, longitud: 001-24-17E, altitud: 802 m

Observació

L'informe es va fer fa 29 minuts, a les 09:30 UTC
Vent 2 kt amb direcció variable
Temperatura 23°C
Humitat 47%
Pressió 1020 hPa
Visibilitat 10 km o més
sense núvols per sota de 1500 mi sense presència de cumulonimbus.

METAR: LESU 060930Z VRB02KT CAVOK 23/11 Q1020

Hora: 11:59 (09:59 UTC)

Pronòstic

L'informe es va fer fa 1 hora i 59 minuts, a les 08:00 UTC
Pronòstic vàlid del 06 a les 09 UTC al 07 a les 09 UTC
Vent 4 kt amb direcció variable
Visibilitat 10 km o més
Escasses núvols a una alçada de 4000 ft
Evolucionant progressivament
l' 06 a les 11 UTC al 06 a les 13 UTC
Vent 10 kt del Sud/Sud-Oest
Evolucionant progressivament
l' 06 a les 18 UTC al 06 a les 20 UTC
Vent 5 kt del Nord

TAF: LESU 060800Z 0609/0709 VRB04KT 9999 FEW040 TX33/0614Z TN14/0705Z BECMG 0611/0613 20010KT BECMG 0618/0620 35005KT

Observacions i pronòstics meteorològics de més de 4000 aeroports (METAR i TAF).

Les estacions disponibles són els punts grocs i vermells al mapa.

Posi el ratolí al punt desitjat per veure el nom de l'estació.

Feu clic per veure les observacions i els pronòstics meteorològics.

Per canviar el mapa: feu clic els botons verds amb una creu de color negre per apropar; al botó verd amb un guió per allunyar la imatge; o en les fletxes verdes per a mapes adjacents.


METAR-TAF: